Los Angeles, California
Traffic Map
Current Weather Conditions
Los Angeles, California
Clear
Clear
23°
Feels Like: 23°
Wind Chill: 23° Ceiling: Unl
Heat Index: 23° Visibility: 10mi
Dew Point: 17° Wind: 3mph
Humidity: 71% Direction: ° ()
Pressure: 29.84in Gusts: 0mph
Raw Report DataKCQT 290347Z AUTO VRB03KT 10SM CLR 23/17 A2984 RMK AO2 SLPNO T02280172
Traffic Incident Summary
Active as of:
Severity:
Category:
InformationThere was an issue retrieving the traffic information for this location. Please try a different location or try again shortly.
Advertisements
Track Severe Weather on mobile